sensor_id;sensor_type;location;lat;lon;timestamp;temperature;humidity
6758;DHT22;3416;53.074;8.822;2023-08-06T00:02:15;15.50;99.90
6758;DHT22;3416;53.074;8.822;2023-08-06T00:04:43;15.50;99.90
6758;DHT22;3416;53.074;8.822;2023-08-06T00:07:10;15.40;99.90
6758;DHT22;3416;53.074;8.822;2023-08-06T00:09:37;15.40;99.90
6758;DHT22;3416;53.074;8.822;2023-08-06T00:12:04;15.50;99.90
6758;DHT22;3416;53.074;8.822;2023-08-06T00:14:33;15.40;99.90
6758;DHT22;3416;53.074;8.822;2023-08-06T00:16:59;15.50;99.90
6758;DHT22;3416;53.074;8.822;2023-08-06T00:19:26;15.50;99.90
6758;DHT22;3416;53.074;8.822;2023-08-06T00:21:55;15.50;99.90
6758;DHT22;3416;53.074;8.822;2023-08-06T00:24:22;15.60;99.90
6758;DHT22;3416;53.074;8.822;2023-08-06T00:26:49;15.50;99.90
6758;DHT22;3416;53.074;8.822;2023-08-06T00:29:16;15.50;99.90
6758;DHT22;3416;53.074;8.822;2023-08-06T00:31:44;15.50;99.90
6758;DHT22;3416;53.074;8.822;2023-08-06T00:34:10;15.50;99.90
6758;DHT22;3416;53.074;8.822;2023-08-06T00:36:37;15.50;99.90
6758;DHT22;3416;53.074;8.822;2023-08-06T00:39:05;15.50;99.90
6758;DHT22;3416;53.074;8.822;2023-08-06T00:41:33;15.50;99.90
6758;DHT22;3416;53.074;8.822;2023-08-06T00:44:00;15.50;99.90
6758;DHT22;3416;53.074;8.822;2023-08-06T00:46:27;15.50;99.90
6758;DHT22;3416;53.074;8.822;2023-08-06T00:48:55;15.50;99.90
6758;DHT22;3416;53.074;8.822;2023-08-06T00:51:22;15.60;99.90
6758;DHT22;3416;53.074;8.822;2023-08-06T00:53:50;15.50;99.90
6758;DHT22;3416;53.074;8.822;2023-08-06T00:56:20;15.60;99.90
6758;DHT22;3416;53.074;8.822;2023-08-06T00:58:47;15.70;99.90
6758;DHT22;3416;53.074;8.822;2023-08-06T01:01:14;15.70;99.90
6758;DHT22;3416;53.074;8.822;2023-08-06T01:03:41;15.70;99.90
6758;DHT22;3416;53.074;8.822;2023-08-06T01:06:09;15.70;99.90
6758;DHT22;3416;53.074;8.822;2023-08-06T01:08:43;15.60;99.90
6758;DHT22;3416;53.074;8.822;2023-08-06T01:11:21;15.60;99.90
6758;DHT22;3416;53.074;8.822;2023-08-06T01:14:05;15.70;99.90
6758;DHT22;3416;53.074;8.822;2023-08-06T01:16:33;15.70;99.90
6758;DHT22;3416;53.074;8.822;2023-08-06T01:19:02;15.70;99.90
6758;DHT22;3416;53.074;8.822;2023-08-06T01:21:30;15.70;99.90
6758;DHT22;3416;53.074;8.822;2023-08-06T01:23:57;15.70;99.90
6758;DHT22;3416;53.074;8.822;2023-08-06T01:26:29;15.60;99.90
6758;DHT22;3416;53.074;8.822;2023-08-06T01:29:03;15.60;99.90
6758;DHT22;3416;53.074;8.822;2023-08-06T01:31:36;15.60;99.90
6758;DHT22;3416;53.074;8.822;2023-08-06T01:34:06;15.60;99.90
6758;DHT22;3416;53.074;8.822;2023-08-06T01:36:38;15.60;99.90
6758;DHT22;3416;53.074;8.822;2023-08-06T01:39:05;15.70;99.90
6758;DHT22;3416;53.074;8.822;2023-08-06T01:41:32;15.60;99.90
6758;DHT22;3416;53.074;8.822;2023-08-06T01:43:59;15.60;99.90
6758;DHT22;3416;53.074;8.822;2023-08-06T01:46:26;15.50;99.90
6758;DHT22;3416;53.074;8.822;2023-08-06T01:48:53;15.40;99.90
6758;DHT22;3416;53.074;8.822;2023-08-06T01:51:20;15.40;99.90
6758;DHT22;3416;53.074;8.822;2023-08-06T01:53:48;15.50;99.90
6758;DHT22;3416;53.074;8.822;2023-08-06T01:56:15;15.40;99.90
6758;DHT22;3416;53.074;8.822;2023-08-06T01:58:43;15.50;99.90
6758;DHT22;3416;53.074;8.822;2023-08-06T02:01:10;15.50;99.90
6758;DHT22;3416;53.074;8.822;2023-08-06T02:03:37;15.50;99.90
6758;DHT22;3416;53.074;8.822;2023-08-06T02:06:04;15.50;99.90
6758;DHT22;3416;53.074;8.822;2023-08-06T02:08:32;15.50;99.90
6758;DHT22;3416;53.074;8.822;2023-08-06T02:11:00;15.50;99.90
6758;DHT22;3416;53.074;8.822;2023-08-06T02:13:28;15.40;99.90
6758;DHT22;3416;53.074;8.822;2023-08-06T02:15:55;15.40;99.90
6758;DHT22;3416;53.074;8.822;2023-08-06T02:18:23;15.40;99.90
6758;DHT22;3416;53.074;8.822;2023-08-06T02:21:00;15.40;99.90
6758;DHT22;3416;53.074;8.822;2023-08-06T02:23:27;15.30;99.90
6758;DHT22;3416;53.074;8.822;2023-08-06T02:26:00;15.30;99.90
6758;DHT22;3416;53.074;8.822;2023-08-06T02:28:27;15.50;99.90
6758;DHT22;3416;53.074;8.822;2023-08-06T02:30:55;15.40;99.90
6758;DHT22;3416;53.074;8.822;2023-08-06T02:33:22;15.40;99.90
6758;DHT22;3416;53.074;8.822;2023-08-06T02:35:49;15.50;99.90
6758;DHT22;3416;53.074;8.822;2023-08-06T02:38:16;15.40;99.90
6758;DHT22;3416;53.074;8.822;2023-08-06T02:40:44;15.50;99.90
6758;DHT22;3416;53.074;8.822;2023-08-06T02:43:13;15.40;99.90
6758;DHT22;3416;53.074;8.822;2023-08-06T02:45:40;15.40;99.90
6758;DHT22;3416;53.074;8.822;2023-08-06T02:48:07;15.40;99.90
6758;DHT22;3416;53.074;8.822;2023-08-06T02:50:40;15.50;99.90
6758;DHT22;3416;53.074;8.822;2023-08-06T02:53:08;15.40;99.90
6758;DHT22;3416;53.074;8.822;2023-08-06T02:55:35;15.40;99.90
6758;DHT22;3416;53.074;8.822;2023-08-06T02:58:02;15.40;99.90
6758;DHT22;3416;53.074;8.822;2023-08-06T03:00:30;15.40;99.90
6758;DHT22;3416;53.074;8.822;2023-08-06T03:02:57;15.40;99.90
6758;DHT22;3416;53.074;8.822;2023-08-06T03:05:25;15.40;99.90
6758;DHT22;3416;53.074;8.822;2023-08-06T03:07:52;15.30;99.90
6758;DHT22;3416;53.074;8.822;2023-08-06T03:10:19;15.30;99.90
6758;DHT22;3416;53.074;8.822;2023-08-06T03:12:46;15.40;99.90
6758;DHT22;3416;53.074;8.822;2023-08-06T03:15:13;15.30;99.90
6758;DHT22;3416;53.074;8.822;2023-08-06T03:17:41;15.30;99.90
6758;DHT22;3416;53.074;8.822;2023-08-06T03:20:10;15.20;99.90
6758;DHT22;3416;53.074;8.822;2023-08-06T03:22:37;15.20;99.90
6758;DHT22;3416;53.074;8.822;2023-08-06T03:25:05;15.30;99.90
6758;DHT22;3416;53.074;8.822;2023-08-06T03:27:32;15.30;99.90
6758;DHT22;3416;53.074;8.822;2023-08-06T03:29:59;15.30;99.90
6758;DHT22;3416;53.074;8.822;2023-08-06T03:32:27;15.30;99.90
6758;DHT22;3416;53.074;8.822;2023-08-06T03:34:55;15.40;99.90
6758;DHT22;3416;53.074;8.822;2023-08-06T03:37:22;15.40;99.90
6758;DHT22;3416;53.074;8.822;2023-08-06T03:39:49;15.40;99.90
6758;DHT22;3416;53.074;8.822;2023-08-06T03:42:15;15.40;99.90
6758;DHT22;3416;53.074;8.822;2023-08-06T03:44:42;15.40;99.90
6758;DHT22;3416;53.074;8.822;2023-08-06T03:47:09;15.40;99.90
6758;DHT22;3416;53.074;8.822;2023-08-06T03:49:36;15.40;99.90
6758;DHT22;3416;53.074;8.822;2023-08-06T03:52:05;15.40;99.90
6758;DHT22;3416;53.074;8.822;2023-08-06T03:54:32;15.50;99.90
6758;DHT22;3416;53.074;8.822;2023-08-06T03:56:59;15.50;99.90
6758;DHT22;3416;53.074;8.822;2023-08-06T03:59:26;15.50;99.90
6758;DHT22;3416;53.074;8.822;2023-08-06T04:01:53;15.60;99.90
6758;DHT22;3416;53.074;8.822;2023-08-06T04:04:20;15.50;99.90
6758;DHT22;3416;53.074;8.822;2023-08-06T04:06:47;15.50;99.90
6758;DHT22;3416;53.074;8.822;2023-08-06T04:09:15;15.50;99.90
6758;DHT22;3416;53.074;8.822;2023-08-06T04:11:42;15.40;99.90
6758;DHT22;3416;53.074;8.822;2023-08-06T04:14:09;15.40;99.90
6758;DHT22;3416;53.074;8.822;2023-08-06T04:16:36;15.40;99.90
6758;DHT22;3416;53.074;8.822;2023-08-06T04:19:05;15.40;99.90
6758;DHT22;3416;53.074;8.822;2023-08-06T04:21:33;15.40;99.90
6758;DHT22;3416;53.074;8.822;2023-08-06T04:24:00;15.50;99.90
6758;DHT22;3416;53.074;8.822;2023-08-06T04:26:29;15.50;99.90
6758;DHT22;3416;53.074;8.822;2023-08-06T04:28:56;15.50;99.90
6758;DHT22;3416;53.074;8.822;2023-08-06T04:31:23;15.50;99.90
6758;DHT22;3416;53.074;8.822;2023-08-06T04:33:49;15.50;99.90
6758;DHT22;3416;53.074;8.822;2023-08-06T04:36:17;15.50;99.90
6758;DHT22;3416;53.074;8.822;2023-08-06T04:38:43;15.50;99.90
6758;DHT22;3416;53.074;8.822;2023-08-06T04:41:13;15.50;99.90
6758;DHT22;3416;53.074;8.822;2023-08-06T04:43:41;15.50;99.90
6758;DHT22;3416;53.074;8.822;2023-08-06T04:46:08;15.50;99.90
6758;DHT22;3416;53.074;8.822;2023-08-06T04:48:35;15.60;99.90
6758;DHT22;3416;53.074;8.822;2023-08-06T04:51:01;15.70;99.90
6758;DHT22;3416;53.074;8.822;2023-08-06T04:53:28;15.70;99.90
6758;DHT22;3416;53.074;8.822;2023-08-06T04:55:55;15.80;99.90
6758;DHT22;3416;53.074;8.822;2023-08-06T04:58:22;15.80;99.90
6758;DHT22;3416;53.074;8.822;2023-08-06T05:00:50;15.80;99.90
6758;DHT22;3416;53.074;8.822;2023-08-06T05:03:17;15.90;99.90
6758;DHT22;3416;53.074;8.822;2023-08-06T05:05:50;15.90;99.90
6758;DHT22;3416;53.074;8.822;2023-08-06T05:08:17;15.80;99.90
6758;DHT22;3416;53.074;8.822;2023-08-06T05:10:46;15.80;99.90
6758;DHT22;3416;53.074;8.822;2023-08-06T05:13:13;15.70;99.90
6758;DHT22;3416;53.074;8.822;2023-08-06T05:15:41;15.90;99.90
6758;DHT22;3416;53.074;8.822;2023-08-06T05:18:09;16.00;99.90
6758;DHT22;3416;53.074;8.822;2023-08-06T05:20:37;16.00;99.90
6758;DHT22;3416;53.074;8.822;2023-08-06T05:23:04;16.00;99.90
6758;DHT22;3416;53.074;8.822;2023-08-06T05:25:31;16.10;99.90
6758;DHT22;3416;53.074;8.822;2023-08-06T05:27:59;16.10;99.90
6758;DHT22;3416;53.074;8.822;2023-08-06T05:30:27;16.10;99.90
6758;DHT22;3416;53.074;8.822;2023-08-06T05:32:56;16.10;99.90
6758;DHT22;3416;53.074;8.822;2023-08-06T05:35:24;16.20;99.90
6758;DHT22;3416;53.074;8.822;2023-08-06T05:37:53;16.30;99.90
6758;DHT22;3416;53.074;8.822;2023-08-06T05:40:20;16.50;99.90
6758;DHT22;3416;53.074;8.822;2023-08-06T05:42:46;16.50;99.90
6758;DHT22;3416;53.074;8.822;2023-08-06T05:45:14;16.60;99.90
6758;DHT22;3416;53.074;8.822;2023-08-06T05:47:42;16.60;99.90
6758;DHT22;3416;53.074;8.822;2023-08-06T05:50:09;16.70;99.90
6758;DHT22;3416;53.074;8.822;2023-08-06T05:52:37;16.80;99.90
6758;DHT22;3416;53.074;8.822;2023-08-06T05:55:05;16.90;99.90
6758;DHT22;3416;53.074;8.822;2023-08-06T05:57:32;16.90;99.90
6758;DHT22;3416;53.074;8.822;2023-08-06T05:59:59;16.90;99.90
6758;DHT22;3416;53.074;8.822;2023-08-06T06:02:26;16.90;99.90
6758;DHT22;3416;53.074;8.822;2023-08-06T06:04:53;16.90;99.90
6758;DHT22;3416;53.074;8.822;2023-08-06T06:07:20;17.00;99.90
6758;DHT22;3416;53.074;8.822;2023-08-06T06:09:48;17.10;99.90
6758;DHT22;3416;53.074;8.822;2023-08-06T06:12:15;17.20;99.90
6758;DHT22;3416;53.074;8.822;2023-08-06T06:14:42;17.30;99.90
6758;DHT22;3416;53.074;8.822;2023-08-06T06:17:10;17.30;99.90
6758;DHT22;3416;53.074;8.822;2023-08-06T06:19:37;17.30;99.90
6758;DHT22;3416;53.074;8.822;2023-08-06T06:22:04;17.30;99.90
6758;DHT22;3416;53.074;8.822;2023-08-06T06:24:32;17.30;99.90
6758;DHT22;3416;53.074;8.822;2023-08-06T06:27:00;17.20;99.90
6758;DHT22;3416;53.074;8.822;2023-08-06T06:29:28;17.30;99.90
6758;DHT22;3416;53.074;8.822;2023-08-06T06:31:55;17.40;99.90
6758;DHT22;3416;53.074;8.822;2023-08-06T06:34:24;17.40;99.90
6758;DHT22;3416;53.074;8.822;2023-08-06T06:36:51;17.50;99.90
6758;DHT22;3416;53.074;8.822;2023-08-06T06:39:21;17.60;99.90
6758;DHT22;3416;53.074;8.822;2023-08-06T06:41:48;17.60;99.90
6758;DHT22;3416;53.074;8.822;2023-08-06T06:44:17;17.50;99.90
6758;DHT22;3416;53.074;8.822;2023-08-06T06:46:47;17.50;99.90
6758;DHT22;3416;53.074;8.822;2023-08-06T06:49:13;17.50;99.90
6758;DHT22;3416;53.074;8.822;2023-08-06T06:51:40;17.50;99.90
6758;DHT22;3416;53.074;8.822;2023-08-06T06:54:08;17.50;99.90
6758;DHT22;3416;53.074;8.822;2023-08-06T06:56:35;17.40;99.90
6758;DHT22;3416;53.074;8.822;2023-08-06T06:59:03;17.40;99.90
6758;DHT22;3416;53.074;8.822;2023-08-06T07:01:31;17.40;99.90
6758;DHT22;3416;53.074;8.822;2023-08-06T07:03:58;17.30;99.90
6758;DHT22;3416;53.074;8.822;2023-08-06T07:08:58;17.40;99.90
6758;DHT22;3416;53.074;8.822;2023-08-06T07:11:25;17.50;99.90
6758;DHT22;3416;53.074;8.822;2023-08-06T07:13:56;17.60;99.90
6758;DHT22;3416;53.074;8.822;2023-08-06T07:16:24;17.70;99.90
6758;DHT22;3416;53.074;8.822;2023-08-06T07:18:54;17.80;99.90
6758;DHT22;3416;53.074;8.822;2023-08-06T07:21:21;17.90;99.90
6758;DHT22;3416;53.074;8.822;2023-08-06T07:23:48;18.10;99.90
6758;DHT22;3416;53.074;8.822;2023-08-06T07:26:16;18.30;99.90
6758;DHT22;3416;53.074;8.822;2023-08-06T07:28:44;18.60;99.90
6758;DHT22;3416;53.074;8.822;2023-08-06T07:31:11;18.90;99.90
6758;DHT22;3416;53.074;8.822;2023-08-06T07:33:38;19.10;99.90
6758;DHT22;3416;53.074;8.822;2023-08-06T07:36:10;19.60;99.90
6758;DHT22;3416;53.074;8.822;2023-08-06T07:38:38;20.10;99.90
6758;DHT22;3416;53.074;8.822;2023-08-06T07:41:04;20.10;99.90
6758;DHT22;3416;53.074;8.822;2023-08-06T07:43:31;20.30;99.90
6758;DHT22;3416;53.074;8.822;2023-08-06T07:45:59;20.70;99.90
6758;DHT22;3416;53.074;8.822;2023-08-06T07:48:26;21.10;99.90
6758;DHT22;3416;53.074;8.822;2023-08-06T07:50:53;21.40;99.90
6758;DHT22;3416;53.074;8.822;2023-08-06T07:53:22;21.50;99.90
6758;DHT22;3416;53.074;8.822;2023-08-06T07:55:53;21.70;99.90
6758;DHT22;3416;53.074;8.822;2023-08-06T07:58:20;22.00;99.90
6758;DHT22;3416;53.074;8.822;2023-08-06T08:00:48;22.20;99.90
6758;DHT22;3416;53.074;8.822;2023-08-06T08:03:16;22.40;99.90
6758;DHT22;3416;53.074;8.822;2023-08-06T08:05:44;23.20;99.90
6758;DHT22;3416;53.074;8.822;2023-08-06T08:08:13;24.00;99.90
6758;DHT22;3416;53.074;8.822;2023-08-06T08:10:42;24.70;99.90
6758;DHT22;3416;53.074;8.822;2023-08-06T08:13:09;25.90;99.90
6758;DHT22;3416;53.074;8.822;2023-08-06T08:15:36;27.30;96.50
6758;DHT22;3416;53.074;8.822;2023-08-06T08:18:09;28.90;93.30
6758;DHT22;3416;53.074;8.822;2023-08-06T08:20:36;29.60;91.10
6758;DHT22;3416;53.074;8.822;2023-08-06T08:23:03;30.00;89.80
6758;DHT22;3416;53.074;8.822;2023-08-06T08:25:30;31.10;88.70
6758;DHT22;3416;53.074;8.822;2023-08-06T08:27:58;31.60;85.70
6758;DHT22;3416;53.074;8.822;2023-08-06T08:30:25;32.10;84.00
6758;DHT22;3416;53.074;8.822;2023-08-06T08:32:52;32.20;82.60
6758;DHT22;3416;53.074;8.822;2023-08-06T08:35:19;32.80;80.60
6758;DHT22;3416;53.074;8.822;2023-08-06T08:37:46;32.70;79.20
6758;DHT22;3416;53.074;8.822;2023-08-06T08:40:14;32.70;79.70
6758;DHT22;3416;53.074;8.822;2023-08-06T08:42:42;32.80;78.80
6758;DHT22;3416;53.074;8.822;2023-08-06T08:45:12;32.70;78.00
6758;DHT22;3416;53.074;8.822;2023-08-06T08:47:41;32.40;79.20
6758;DHT22;3416;53.074;8.822;2023-08-06T08:50:09;32.20;79.10
6758;DHT22;3416;53.074;8.822;2023-08-06T08:52:38;32.30;79.50
6758;DHT22;3416;53.074;8.822;2023-08-06T08:55:07;32.50;77.60
6758;DHT22;3416;53.074;8.822;2023-08-06T08:57:34;33.00;77.30
6758;DHT22;3416;53.074;8.822;2023-08-06T09:00:01;33.10;77.50
6758;DHT22;3416;53.074;8.822;2023-08-06T09:02:31;33.30;76.30
6758;DHT22;3416;53.074;8.822;2023-08-06T09:05:00;32.90;77.40
6758;DHT22;3416;53.074;8.822;2023-08-06T09:07:32;33.10;76.20
6758;DHT22;3416;53.074;8.822;2023-08-06T09:10:02;33.30;75.90
6758;DHT22;3416;53.074;8.822;2023-08-06T09:12:30;33.10;76.70
6758;DHT22;3416;53.074;8.822;2023-08-06T09:14:57;33.00;77.30
6758;DHT22;3416;53.074;8.822;2023-08-06T09:17:25;32.80;77.60
6758;DHT22;3416;53.074;8.822;2023-08-06T09:19:55;32.70;79.20
6758;DHT22;3416;53.074;8.822;2023-08-06T09:22:22;32.70;78.40
6758;DHT22;3416;53.074;8.822;2023-08-06T09:24:49;32.50;78.40
6758;DHT22;3416;53.074;8.822;2023-08-06T09:27:16;32.20;77.80
6758;DHT22;3416;53.074;8.822;2023-08-06T09:29:44;32.00;79.70
6758;DHT22;3416;53.074;8.822;2023-08-06T09:32:11;32.20;78.80
6758;DHT22;3416;53.074;8.822;2023-08-06T09:34:39;32.80;76.60
6758;DHT22;3416;53.074;8.822;2023-08-06T09:37:09;33.10;78.50
6758;DHT22;3416;53.074;8.822;2023-08-06T09:39:39;32.90;76.80
6758;DHT22;3416;53.074;8.822;2023-08-06T09:42:07;32.30;77.90
6758;DHT22;3416;53.074;8.822;2023-08-06T09:44:34;32.10;79.20
6758;DHT22;3416;53.074;8.822;2023-08-06T09:47:03;31.90;80.10
6758;DHT22;3416;53.074;8.822;2023-08-06T09:49:41;31.50;79.60
6758;DHT22;3416;53.074;8.822;2023-08-06T09:52:13;31.10;82.20
6758;DHT22;3416;53.074;8.822;2023-08-06T09:54:43;31.40;81.30
6758;DHT22;3416;53.074;8.822;2023-08-06T09:57:12;31.30;79.80
6758;DHT22;3416;53.074;8.822;2023-08-06T09:59:39;31.30;80.10
6758;DHT22;3416;53.074;8.822;2023-08-06T10:02:12;31.20;81.30
6758;DHT22;3416;53.074;8.822;2023-08-06T10:04:39;31.20;79.70
6758;DHT22;3416;53.074;8.822;2023-08-06T10:07:07;31.20;79.50
6758;DHT22;3416;53.074;8.822;2023-08-06T10:09:36;31.30;78.80
6758;DHT22;3416;53.074;8.822;2023-08-06T10:12:04;31.40;79.00
6758;DHT22;3416;53.074;8.822;2023-08-06T10:14:33;30.80;79.70
6758;DHT22;3416;53.074;8.822;2023-08-06T10:17:00;30.30;81.70
6758;DHT22;3416;53.074;8.822;2023-08-06T10:19:29;30.80;80.50
6758;DHT22;3416;53.074;8.822;2023-08-06T10:22:09;31.20;80.40
6758;DHT22;3416;53.074;8.822;2023-08-06T10:24:48;31.40;80.10
6758;DHT22;3416;53.074;8.822;2023-08-06T10:27:27;31.50;78.80
6758;DHT22;3416;53.074;8.822;2023-08-06T10:29:55;31.40;77.70
6758;DHT22;3416;53.074;8.822;2023-08-06T10:32:22;30.90;80.10
6758;DHT22;3416;53.074;8.822;2023-08-06T10:35:06;30.80;79.90
6758;DHT22;3416;53.074;8.822;2023-08-06T10:37:37;30.60;79.60
6758;DHT22;3416;53.074;8.822;2023-08-06T10:40:06;30.70;80.80
6758;DHT22;3416;53.074;8.822;2023-08-06T10:42:36;30.80;81.20
6758;DHT22;3416;53.074;8.822;2023-08-06T10:45:13;30.60;81.20
6758;DHT22;3416;53.074;8.822;2023-08-06T10:47:41;30.50;82.70
6758;DHT22;3416;53.074;8.822;2023-08-06T10:50:10;29.80;83.00
6758;DHT22;3416;53.074;8.822;2023-08-06T10:52:37;29.50;84.90
6758;DHT22;3416;53.074;8.822;2023-08-06T10:55:07;29.10;85.30
6758;DHT22;3416;53.074;8.822;2023-08-06T10:57:34;28.60;82.60
6758;DHT22;3416;53.074;8.822;2023-08-06T11:00:03;28.40;82.40
6758;DHT22;3416;53.074;8.822;2023-08-06T11:02:33;28.10;80.60
6758;DHT22;3416;53.074;8.822;2023-08-06T11:05:05;27.80;81.00
6758;DHT22;3416;53.074;8.822;2023-08-06T11:07:32;27.60;81.90
6758;DHT22;3416;53.074;8.822;2023-08-06T11:10:03;27.40;83.40
6758;DHT22;3416;53.074;8.822;2023-08-06T11:12:31;27.20;82.90
6758;DHT22;3416;53.074;8.822;2023-08-06T11:14:59;27.10;85.50
6758;DHT22;3416;53.074;8.822;2023-08-06T11:17:27;27.10;87.10
6758;DHT22;3416;53.074;8.822;2023-08-06T11:19:55;27.10;88.50
6758;DHT22;3416;53.074;8.822;2023-08-06T11:22:22;27.00;87.10
6758;DHT22;3416;53.074;8.822;2023-08-06T11:24:49;27.00;88.80
6758;DHT22;3416;53.074;8.822;2023-08-06T11:27:17;27.10;87.80
6758;DHT22;3416;53.074;8.822;2023-08-06T11:29:45;27.20;87.60
6758;DHT22;3416;53.074;8.822;2023-08-06T11:32:12;27.30;87.70
6758;DHT22;3416;53.074;8.822;2023-08-06T11:34:39;27.20;88.30
6758;DHT22;3416;53.074;8.822;2023-08-06T11:37:07;27.20;86.70
6758;DHT22;3416;53.074;8.822;2023-08-06T11:39:34;27.30;86.50
6758;DHT22;3416;53.074;8.822;2023-08-06T11:42:03;27.20;87.60
6758;DHT22;3416;53.074;8.822;2023-08-06T11:44:31;27.00;88.90
6758;DHT22;3416;53.074;8.822;2023-08-06T11:47:01;26.80;90.50
6758;DHT22;3416;53.074;8.822;2023-08-06T11:49:40;26.90;89.50
6758;DHT22;3416;53.074;8.822;2023-08-06T11:52:13;27.20;86.80
6758;DHT22;3416;53.074;8.822;2023-08-06T11:54:40;26.90;84.60
6758;DHT22;3416;53.074;8.822;2023-08-06T11:57:07;27.00;86.70
6758;DHT22;3416;53.074;8.822;2023-08-06T11:59:35;27.10;87.20
6758;DHT22;3416;53.074;8.822;2023-08-06T12:02:07;27.30;87.20
6758;DHT22;3416;53.074;8.822;2023-08-06T12:04:58;27.30;85.80
6758;DHT22;3416;53.074;8.822;2023-08-06T12:07:27;27.00;85.80
6758;DHT22;3416;53.074;8.822;2023-08-06T12:09:54;26.90;88.30
6758;DHT22;3416;53.074;8.822;2023-08-06T12:12:21;27.10;88.00
6758;DHT22;3416;53.074;8.822;2023-08-06T12:14:48;27.20;88.20
6758;DHT22;3416;53.074;8.822;2023-08-06T12:17:17;27.20;89.00
6758;DHT22;3416;53.074;8.822;2023-08-06T12:19:45;27.20;88.60
6758;DHT22;3416;53.074;8.822;2023-08-06T12:22:14;27.20;88.30
6758;DHT22;3416;53.074;8.822;2023-08-06T12:24:42;27.20;87.10
6758;DHT22;3416;53.074;8.822;2023-08-06T12:27:09;27.20;88.90
6758;DHT22;3416;53.074;8.822;2023-08-06T12:29:37;27.10;88.90
6758;DHT22;3416;53.074;8.822;2023-08-06T12:32:05;26.80;89.40
6758;DHT22;3416;53.074;8.822;2023-08-06T12:34:34;26.50;88.60
6758;DHT22;3416;53.074;8.822;2023-08-06T12:37:02;26.50;88.60
6758;DHT22;3416;53.074;8.822;2023-08-06T12:39:29;26.40;88.40
6758;DHT22;3416;53.074;8.822;2023-08-06T12:41:57;26.30;90.20
6758;DHT22;3416;53.074;8.822;2023-08-06T12:44:23;26.50;90.40
6758;DHT22;3416;53.074;8.822;2023-08-06T12:46:51;26.50;90.30
6758;DHT22;3416;53.074;8.822;2023-08-06T12:49:18;26.50;90.20
6758;DHT22;3416;53.074;8.822;2023-08-06T12:51:48;26.40;90.80
6758;DHT22;3416;53.074;8.822;2023-08-06T12:54:16;26.20;91.10
6758;DHT22;3416;53.074;8.822;2023-08-06T12:56:44;25.90;91.50
6758;DHT22;3416;53.074;8.822;2023-08-06T12:59:11;25.60;92.30
6758;DHT22;3416;53.074;8.822;2023-08-06T13:01:38;25.50;92.30
6758;DHT22;3416;53.074;8.822;2023-08-06T13:04:05;25.30;92.40
6758;DHT22;3416;53.074;8.822;2023-08-06T13:06:33;25.30;92.60
6758;DHT22;3416;53.074;8.822;2023-08-06T13:09:03;25.40;92.20
6758;DHT22;3416;53.074;8.822;2023-08-06T13:11:32;25.40;92.00
6758;DHT22;3416;53.074;8.822;2023-08-06T13:14:04;25.30;92.30
6758;DHT22;3416;53.074;8.822;2023-08-06T13:16:32;25.40;92.10
6758;DHT22;3416;53.074;8.822;2023-08-06T13:18:59;25.40;91.90
6758;DHT22;3416;53.074;8.822;2023-08-06T13:21:32;25.60;91.60
6758;DHT22;3416;53.074;8.822;2023-08-06T13:24:02;25.70;91.40
6758;DHT22;3416;53.074;8.822;2023-08-06T13:26:31;25.90;91.50
6758;DHT22;3416;53.074;8.822;2023-08-06T13:28:59;26.00;90.50
6758;DHT22;3416;53.074;8.822;2023-08-06T13:31:26;26.00;90.50
6758;DHT22;3416;53.074;8.822;2023-08-06T13:33:54;26.10;90.70
6758;DHT22;3416;53.074;8.822;2023-08-06T13:36:23;26.10;90.10
6758;DHT22;3416;53.074;8.822;2023-08-06T13:38:50;26.10;89.60
6758;DHT22;3416;53.074;8.822;2023-08-06T13:41:23;26.10;89.10
6758;DHT22;3416;53.074;8.822;2023-08-06T13:43:50;26.10;90.10
6758;DHT22;3416;53.074;8.822;2023-08-06T13:46:21;26.10;90.70
6758;DHT22;3416;53.074;8.822;2023-08-06T13:48:48;26.20;90.70
6758;DHT22;3416;53.074;8.822;2023-08-06T13:51:17;26.30;90.90
6758;DHT22;3416;53.074;8.822;2023-08-06T13:53:45;26.20;90.10
6758;DHT22;3416;53.074;8.822;2023-08-06T13:56:12;26.30;90.30
6758;DHT22;3416;53.074;8.822;2023-08-06T13:58:44;26.20;90.40
6758;DHT22;3416;53.074;8.822;2023-08-06T14:01:11;26.20;90.30
6758;DHT22;3416;53.074;8.822;2023-08-06T14:03:40;26.00;90.10
6758;DHT22;3416;53.074;8.822;2023-08-06T14:06:07;26.00;90.70
6758;DHT22;3416;53.074;8.822;2023-08-06T14:08:35;25.80;90.90
6758;DHT22;3416;53.074;8.822;2023-08-06T14:11:02;25.80;91.30
6758;DHT22;3416;53.074;8.822;2023-08-06T14:13:30;25.70;91.30
6758;DHT22;3416;53.074;8.822;2023-08-06T14:15:59;25.80;91.20
6758;DHT22;3416;53.074;8.822;2023-08-06T14:18:28;25.70;91.20
6758;DHT22;3416;53.074;8.822;2023-08-06T14:20:55;25.60;91.40
6758;DHT22;3416;53.074;8.822;2023-08-06T14:23:22;25.50;91.70
6758;DHT22;3416;53.074;8.822;2023-08-06T14:25:49;25.30;92.00
6758;DHT22;3416;53.074;8.822;2023-08-06T14:28:16;25.20;92.50
6758;DHT22;3416;53.074;8.822;2023-08-06T14:30:43;25.20;92.70
6758;DHT22;3416;53.074;8.822;2023-08-06T14:33:11;25.30;92.30
6758;DHT22;3416;53.074;8.822;2023-08-06T14:35:38;25.30;92.40
6758;DHT22;3416;53.074;8.822;2023-08-06T14:38:05;25.30;92.70
6758;DHT22;3416;53.074;8.822;2023-08-06T14:40:33;25.30;92.70
6758;DHT22;3416;53.074;8.822;2023-08-06T14:43:03;25.30;92.80
6758;DHT22;3416;53.074;8.822;2023-08-06T14:45:30;25.30;92.60
6758;DHT22;3416;53.074;8.822;2023-08-06T14:47:57;25.30;92.30
6758;DHT22;3416;53.074;8.822;2023-08-06T14:50:26;25.40;92.10
6758;DHT22;3416;53.074;8.822;2023-08-06T14:52:52;25.20;92.00
6758;DHT22;3416;53.074;8.822;2023-08-06T14:55:24;25.00;92.10
6758;DHT22;3416;53.074;8.822;2023-08-06T14:57:52;24.90;91.90
6758;DHT22;3416;53.074;8.822;2023-08-06T15:00:23;24.80;91.80
6758;DHT22;3416;53.074;8.822;2023-08-06T15:02:50;24.80;92.00
6758;DHT22;3416;53.074;8.822;2023-08-06T15:05:16;24.80;92.10
6758;DHT22;3416;53.074;8.822;2023-08-06T15:07:45;25.00;91.30
6758;DHT22;3416;53.074;8.822;2023-08-06T15:10:13;25.00;91.80
6758;DHT22;3416;53.074;8.822;2023-08-06T15:12:40;24.80;92.60
6758;DHT22;3416;53.074;8.822;2023-08-06T15:15:08;24.70;92.80
6758;DHT22;3416;53.074;8.822;2023-08-06T15:17:35;24.70;92.90
6758;DHT22;3416;53.074;8.822;2023-08-06T15:20:03;24.80;92.70
6758;DHT22;3416;53.074;8.822;2023-08-06T15:22:31;24.90;92.40
6758;DHT22;3416;53.074;8.822;2023-08-06T15:25:00;25.00;92.30
6758;DHT22;3416;53.074;8.822;2023-08-06T15:27:27;25.10;92.60
6758;DHT22;3416;53.074;8.822;2023-08-06T15:29:54;25.20;92.30
6758;DHT22;3416;53.074;8.822;2023-08-06T15:32:21;25.10;92.20
6758;DHT22;3416;53.074;8.822;2023-08-06T15:34:48;25.10;92.10
6758;DHT22;3416;53.074;8.822;2023-08-06T15:37:15;25.00;92.00
6758;DHT22;3416;53.074;8.822;2023-08-06T15:39:43;24.90;92.00
6758;DHT22;3416;53.074;8.822;2023-08-06T15:42:11;24.70;92.60
6758;DHT22;3416;53.074;8.822;2023-08-06T15:44:41;24.40;93.10
6758;DHT22;3416;53.074;8.822;2023-08-06T15:47:08;24.30;93.30
6758;DHT22;3416;53.074;8.822;2023-08-06T15:49:35;24.10;93.60
6758;DHT22;3416;53.074;8.822;2023-08-06T15:52:04;23.90;93.90
6758;DHT22;3416;53.074;8.822;2023-08-06T15:54:31;23.80;94.50
6758;DHT22;3416;53.074;8.822;2023-08-06T15:56:58;23.60;94.60
6758;DHT22;3416;53.074;8.822;2023-08-06T15:59:27;23.30;95.20
6758;DHT22;3416;53.074;8.822;2023-08-06T16:01:55;23.20;95.40
6758;DHT22;3416;53.074;8.822;2023-08-06T16:04:23;22.90;95.40
6758;DHT22;3416;53.074;8.822;2023-08-06T16:06:50;22.80;95.50
6758;DHT22;3416;53.074;8.822;2023-08-06T16:09:17;22.70;95.80
6758;DHT22;3416;53.074;8.822;2023-08-06T16:11:44;22.70;96.00